Danmarkshavn

KL  EN  DA
ASIAQ
Weather Now GREENLAND SURVEY
Updated [WGT/WGST] Temperature [°C] Wind [m/s] Air pressure [hPa] Relative humidity [%] Precipitation [mm]
Present Wind chill Speed Max
30.11 16:00-20,7-27,92,7 ⇓16,4101352n/a
30.11 15:00-20,0-33,29,4 ⇒18,5101259n/a
30.11 14:00-20,1-35,914,9 ⇒18,11011640,1
30.11 13:00-20,8-34,910,6 ⇒17,71011670,2
30.11 12:00-20,7-35,712,6 ⇒16,4101161n/a
30.11 11:00-20,5-35,512,6 ⇓17,7101162n/a
30.11 10:00-20,2-32,68,1 ⇘18,21011640,1
30.11 09:00-20,3-36,215,0 ⇘19,51010650,4
30.11 08:00-19,7-35,314,8 ⇘20,01009670,5
30.11 07:00-19,5-34,513,5 ⇒16,71008650,1
30.11 06:00-19,8-35,214,1 ⇘18,91008700,3
30.11 05:00-19,0-33,813,4 ⇓18,21008620,3
30.11 04:00-19,5-35,917,2 ⇘20,51007730,8
30.11 03:00-19,6-33,410,7 ⇓14,8100763n/a
30.11 02:00-18,7-31,810,1 ⇓16,31006590,1
30.11 01:00-19,0-33,913,7 ⇒18,61006630,1
30.11 00:00-20,9-26,11,7 ⇑11,1100655n/a
29.11 23:00-23,3-33,04,1 ⇒8,4100560n/a
29.11 22:00-21,0-33,68,0 ⇒9,1100454n/a
29.11 21:00-23,0-34,35,6 ⇒9,5100463n/a
29.11 20:00-22,0-32,75,3 ⇒10,0100462n/a
29.11 19:00-22,3-35,17,7 ⇒10,1100365n/a
29.11 18:00-23,4-33,54,4 ⇒8,5100467n/a
29.11 17:00-22,7-33,04,7 ⇘7,3100465n/a
29.11 16:00-21,6-32,85,9 ⇒8,1100362n/a
Position: (76.76944444444,-18.66805555)

[Back]